Time;durP1;ratioP1;P1;durP2;ratioP2;P2;SDS_P1;SDS_P2;PMS_P1;PMS_P2;Temp;Humidity;BMP_temperature;BMP_pressure;BME280_temperature;BME280_humidity;BME280_pressure;Samples;Min_cycle;Max_cycle;Signal;HPM_P1;HPM_P2
2022/04/01 00:01:28;;;;;;;1.17;0.83;;;;;;;3.28;100.00;100874.63;4991097;28;20228;-72
2022/04/01 00:03:53;;;;;;;0.80;0.80;;;;;;;3.55;100.00;100908.19;4996202;28;20185;-72
2022/04/01 00:06:19;;;;;;;2.10;0.80;;;;;;;3.49;100.00;100928.19;4999074;28;20212;-72
2022/04/01 00:08:44;;;;;;;1.60;0.87;;;;;;;3.46;100.00;100870.16;4995036;28;20192;-72
2022/04/01 00:11:10;;;;;;;0.90;0.70;;;;;;;3.63;100.00;100932.97;5010773;23;20233;-82
2022/04/01 00:13:35;;;;;;;0.83;0.70;;;;;;;3.68;100.00;100906.00;5013261;28;21142;-81
2022/04/01 00:16:01;;;;;;;1.43;0.90;;;;;;;3.17;100.00;100865.88;5018591;28;20188;-82
2022/04/01 00:18:26;;;;;;;0.83;0.80;;;;;;;3.57;100.00;100859.31;5019902;28;20287;-82
2022/04/01 00:20:51;;;;;;;0.70;0.70;;;;;;;3.87;100.00;100910.28;5025700;28;20208;-82
2022/04/01 00:23:17;;;;;;;1.47;1.07;;;;;;;4.26;100.00;100936.50;5015605;28;20251;-81
2022/04/01 00:25:42;;;;;;;1.47;1.00;;;;;;;3.15;100.00;100788.38;5017285;28;20212;-81
2022/04/01 00:28:08;;;;;;;2.53;1.00;;;;;;;3.09;100.00;100801.38;5015566;28;20288;-81
2022/04/01 00:30:34;;;;;;;1.50;0.87;;;;;;;3.29;100.00;100858.56;5015623;28;20292;-81
2022/04/01 00:33:00;;;;;;;1.07;0.80;;;;;;;3.23;100.00;100831.81;5013377;28;20180;-82
2022/04/01 00:35:26;;;;;;;1.77;1.00;;;;;;;3.42;100.00;100866.16;5017212;28;20454;-82
2022/04/01 00:37:52;;;;;;;2.70;0.70;;;;;;;3.98;100.00;100910.06;5018636;28;20450;-82
2022/04/01 00:40:18;;;;;;;3.73;0.97;;;;;;;4.10;100.00;100912.47;5028796;28;20247;-82
2022/04/01 00:42:45;;;;;;;0.77;0.67;;;;;;;3.98;100.00;100894.13;5026110;28;20265;-83
2022/04/01 00:45:10;;;;;;;0.90;0.70;;;;;;;3.66;100.00;100832.88;5022835;28;20478;-83
2022/04/01 00:47:36;;;;;;;4.33;0.70;;;;;;;3.76;100.00;100908.72;5022629;28;20443;-82
2022/04/01 00:50:02;;;;;;;1.00;0.80;;;;;;;3.88;100.00;100914.63;5024784;28;20216;-82
2022/04/01 00:52:28;;;;;;;3.40;1.07;;;;;;;4.20;100.00;100923.84;5020111;28;20250;-82
2022/04/01 00:54:53;;;;;;;1.70;0.93;;;;;;;3.41;100.00;100830.00;5016573;28;20428;-81
2022/04/01 00:57:19;;;;;;;1.87;0.90;;;;;;;3.88;100.00;100898.72;5017279;28;20653;-81
2022/04/01 00:59:46;;;;;;;1.50;0.80;;;;;;;3.53;100.00;100857.97;5016356;28;20636;-81
2022/04/01 01:02:14;;;;;;;1.20;0.90;;;;;;;3.35;100.00;100807.56;5011841;28;20942;-81
2022/04/01 01:04:41;;;;;;;2.30;0.90;;;;;;;4.08;100.00;100923.25;5013840;28;20447;-80
2022/04/01 01:07:06;;;;;;;1.30;1.10;;;;;;;4.00;100.00;100920.53;5009435;28;20494;-81
2022/04/01 01:09:32;;;;;;;1.07;0.90;;;;;;;3.90;100.00;100899.38;5015984;28;20451;-81
2022/04/01 01:11:57;;;;;;;0.90;0.77;;;;;;;4.31;100.00;100944.84;5019519;28;20474;-81
2022/04/01 01:14:30;;;;;;;0.70;0.70;;;;;;;4.26;100.00;100904.63;5016330;28;20282;-82
2022/04/01 01:16:56;;;;;;;1.30;1.10;;;;;;;3.71;100.00;100855.28;5020459;28;20665;-82
2022/04/01 01:19:22;;;;;;;1.70;1.00;;;;;;;3.45;100.00;100796.06;5025994;28;20449;-82
2022/04/01 01:21:51;;;;;;;0.87;0.70;;;;;;;3.04;100.00;100774.47;5017356;28;20466;-82
2022/04/01 01:24:16;;;;;;;1.13;0.80;;;;;;;3.25;100.00;100841.28;5010639;28;20536;-81
2022/04/01 01:26:51;;;;;;;1.30;0.70;;;;;;;3.84;100.00;100907.94;5023345;28;20919;-82
2022/04/01 01:29:28;;;;;;;2.70;1.60;;;;;;;3.75;100.00;100877.03;5018264;28;20218;-82
2022/04/01 01:31:55;;;;;;;0.80;0.73;;;;;;;3.35;100.00;100804.91;5013908;28;20984;-82
2022/04/01 01:34:22;;;;;;;1.03;0.80;;;;;;;3.68;100.00;100839.69;5013047;28;20447;-81
2022/04/01 01:36:48;;;;;;;2.93;1.10;;;;;;;3.93;100.00;100920.28;5013573;28;20521;-81
2022/04/01 01:39:14;;;;;;;1.10;0.80;;;;;;;3.47;100.00;100860.38;5012350;28;20447;-81
2022/04/01 01:41:43;;;;;;;1.53;0.80;;;;;;;3.69;100.00;100835.22;5006168;28;21970;-81
2022/04/01 01:44:10;;;;;;;0.87;0.87;;;;;;;3.54;100.00;100856.13;5028105;28;20189;-81
2022/04/01 01:46:36;;;;;;;0.93;0.83;;;;;;;3.38;100.00;100812.59;5015813;28;20464;-81
2022/04/01 01:49:02;;;;;;;1.57;1.13;;;;;;;4.24;100.00;100941.94;5011804;28;20944;-81
2022/04/01 01:56:55;;;;;;;1.70;1.17;;;;;;;4.23;100.00;100942.94;5018158;28;20569;-82
2022/04/01 01:59:20;;;;;;;1.33;1.10;;;;;;;3.21;100.00;100792.22;5015957;28;20527;-82
2022/04/01 02:01:46;;;;;;;1.03;0.90;;;;;;;3.86;100.00;100898.03;5012162;28;20341;-81
2022/04/01 02:04:11;;;;;;;1.27;0.77;;;;;;;3.91;100.00;100914.31;5013035;28;20195;-81
2022/04/01 02:06:37;;;;;;;2.80;0.80;;;;;;;4.08;100.00;100920.59;5015083;28;20643;-81
2022/04/01 02:09:04;;;;;;;1.67;0.90;;;;;;;2.97;100.00;100763.66;5012353;28;20207;-81
2022/04/01 02:11:29;;;;;;;0.80;0.80;;;;;;;3.94;100.00;100940.56;5013243;28;20471;-80
2022/04/01 02:13:55;;;;;;;0.83;0.83;;;;;;;3.22;100.00;100801.84;5011651;28;20451;-80
2022/04/01 02:16:23;;;;;;;1.67;0.93;;;;;;;3.98;100.00;100909.22;5011068;28;20473;-80
2022/04/01 02:18:49;;;;;;;1.17;0.90;;;;;;;3.39;100.00;100827.50;5019799;28;20181;-80
2022/04/01 02:21:16;;;;;;;1.13;0.73;;;;;;;3.43;100.00;100828.03;5013802;28;20460;-80
2022/04/01 02:23:44;;;;;;;1.80;0.70;;;;;;;3.17;100.00;100791.69;5012035;28;20438;-80
2022/04/01 02:26:10;;;;;;;1.37;1.00;;;;;;;3.51;100.00;100851.97;5015842;28;20464;-81
2022/04/01 02:28:37;;;;;;;0.80;0.70;;;;;;;4.23;100.00;100937.63;5011438;28;20434;-81
2022/04/01 02:31:04;;;;;;;1.83;0.97;;;;;;;4.13;100.00;100944.84;5005776;28;20532;-81
2022/04/01 02:33:31;;;;;;;0.93;0.80;;;;;;;3.47;100.00;100817.94;5013009;28;20438;-80
2022/04/01 02:35:57;;;;;;;2.13;0.90;;;;;;;3.51;100.00;100878.50;5015469;28;20447;-81
2022/04/01 02:38:27;;;;;;;3.50;0.80;;;;;;;3.62;100.00;100882.75;5010652;28;20527;-81
2022/04/01 02:40:54;;;;;;;2.27;1.17;;;;;;;3.44;100.00;100844.75;5012317;28;20466;-81
2022/04/01 02:43:20;;;;;;;2.10;0.90;;;;;;;3.28;100.00;100845.47;5011167;28;20455;-81
2022/04/01 02:45:48;;;;;;;2.00;0.80;;;;;;;3.90;100.00;100951.63;5014562;28;20467;-81
2022/04/01 02:48:14;;;;;;;3.77;0.90;;;;;;;3.72;100.00;100896.75;5011713;28;20440;-80
2022/04/01 02:50:40;;;;;;;0.60;0.60;;;;;;;3.74;100.00;100893.94;5013606;28;20486;-81
2022/04/01 02:53:05;;;;;;;1.27;0.80;;;;;;;3.47;100.00;100860.38;5012071;28;20655;-81
2022/04/01 02:55:30;;;;;;;1.97;0.80;;;;;;;3.34;100.00;100848.34;5020213;28;20905;-82
2022/04/01 02:57:56;;;;;;;1.53;1.10;;;;;;;3.39;100.00;100858.50;5020868;28;20817;-82
2022/04/01 03:00:21;;;;;;;1.10;0.90;;;;;;;3.18;100.00;100826.97;5014676;28;20681;-82
2022/04/01 03:02:50;;;;;;;2.33;0.77;;;;;;;3.41;100.00;100837.94;5016464;28;20273;-83
2022/04/01 03:05:17;;;;;;;2.10;0.80;;;;;;;3.73;100.00;100873.69;5009616;28;20209;-82
2022/04/01 03:07:43;;;;;;;1.37;0.80;;;;;;;3.44;100.00;100836.81;5011831;28;20442;-83
2022/04/01 03:10:09;;;;;;;1.30;0.80;;;;;;;3.77;100.00;100897.13;5014535;28;20472;-83
2022/04/01 03:12:35;;;;;;;1.30;0.80;;;;;;;4.07;100.00;100924.22;5014684;28;20186;-82
2022/04/01 03:15:02;;;;;;;1.40;0.70;;;;;;;3.76;100.00;100935.25;5016261;28;20534;-82
2022/04/01 03:17:28;;;;;;;0.90;0.80;;;;;;;3.38;100.00;100878.88;5013417;28;20500;-83
2022/04/01 03:19:53;;;;;;;3.13;0.93;;;;;;;3.94;100.00;100953.81;5011602;28;20455;-83
2022/04/01 03:22:20;;;;;;;1.00;0.90;;;;;;;3.99;100.00;100972.78;5014275;28;20192;-83
2022/04/01 03:24:46;;;;;;;1.30;0.63;;;;;;;3.66;100.00;100907.13;5009273;28;20241;-82
2022/04/01 03:27:12;;;;;;;3.37;0.87;;;;;;;3.58;100.00;100923.78;5011089;28;20938;-82
2022/04/01 03:29:37;;;;;;;3.23;0.77;;;;;;;3.66;100.00;100920.41;5012824;28;20448;-82
2022/04/01 03:32:04;;;;;;;1.10;0.80;;;;;;;3.99;100.00;100921.50;5015635;28;20392;-82
2022/04/01 03:34:30;;;;;;;2.43;0.83;;;;;;;4.18;100.00;100987.69;5010902;28;20188;-82
2022/04/01 03:36:56;;;;;;;2.50;0.80;;;;;;;4.39;100.00;100970.59;5011373;28;21022;-82
2022/04/01 03:39:24;;;;;;;0.70;0.70;;;;;;;4.11;100.00;100977.84;5015733;28;20548;-83
2022/04/01 03:41:50;;;;;;;1.03;0.80;;;;;;;4.38;100.00;100984.88;5016061;28;20279;-83
2022/04/01 03:44:17;;;;;;;1.67;0.80;;;;;;;4.08;100.00;100925.91;5015764;28;20447;-81
2022/04/01 03:46:42;;;;;;;1.90;0.80;;;;;;;4.24;100.00;100989.72;5019342;28;20233;-81
2022/04/01 03:49:13;;;;;;;0.90;0.90;;;;;;;3.76;100.00;100907.88;5013035;28;20446;-81
2022/04/01 03:51:39;;;;;;;1.67;0.80;;;;;;;3.82;100.00;100949.75;5016563;28;20208;-81
2022/04/01 03:54:05;;;;;;;1.80;0.73;;;;;;;4.00;100.00;100963.81;5012930;28;20487;-81
2022/04/01 03:56:34;;;;;;;2.00;0.90;;;;;;;4.10;100.00;100968.22;5019459;28;20188;-81
2022/04/01 03:59:02;;;;;;;1.17;0.70;;;;;;;4.12;100.00;100952.97;5031202;28;20947;-81
2022/04/01 04:01:28;;;;;;;0.70;0.70;;;;;;;4.14;100.00;100990.78;5015959;28;21028;-80
2022/04/01 04:03:56;;;;;;;1.87;0.70;;;;;;;4.08;100.00;101002.88;5015693;28;20446;-80
2022/04/01 04:06:25;;;;;;;1.93;0.67;;;;;;;4.28;100.00;101007.03;5011035;28;20197;-81
2022/04/01 04:08:57;;;;;;;2.53;1.03;;;;;;;3.52;100.00;100885.44;5015254;28;20520;-81
2022/04/01 04:11:28;;;;;;;1.43;0.93;;;;;;;3.94;100.00;100955.66;5009011;28;20469;-81
2022/04/01 04:13:55;;;;;;;1.40;0.80;;;;;;;3.91;100.00;100945.34;5011122;28;20439;-81
2022/04/01 04:16:29;;;;;;;1.83;0.90;;;;;;;3.92;100.00;100945.16;5017811;28;20550;-82
2022/04/01 04:19:24;;;;;;;0.73;0.67;;;;;;;4.07;100.00;101011.81;5014422;28;20448;-82
2022/04/01 04:22:00;;;;;;;0.70;0.70;;;;;;;3.97;100.00;100968.63;5011313;28;20470;-81
2022/04/01 04:24:35;;;;;;;1.57;1.00;;;;;;;4.08;100.00;101006.38;5011718;28;20443;-82
2022/04/01 04:27:12;;;;;;;1.20;0.73;;;;;;;4.12;100.00;100987.47;5019616;28;20441;-82
2022/04/01 04:29:50;;;;;;;1.17;0.80;;;;;;;4.33;100.00;101030.47;5017955;28;20585;-82
2022/04/01 04:32:22;;;;;;;1.17;1.00;;;;;;;3.92;100.00;100982.31;5020350;28;20451;-83
2022/04/01 04:34:50;;;;;;;1.17;1.00;;;;;;;4.20;100.00;101043.31;5013483;28;20936;-83
2022/04/01 04:37:20;;;;;;;1.70;0.73;;;;;;;4.19;100.00;101012.41;5018910;28;20538;-82
2022/04/01 04:39:48;;;;;;;0.70;0.70;;;;;;;3.83;100.00;100975.28;5028883;28;20439;-83
2022/04/01 04:42:15;;;;;;;2.67;0.87;;;;;;;3.94;100.00;100964.44;5017310;28;20446;-82
2022/04/01 04:44:44;;;;;;;1.10;0.63;;;;;;;4.10;100.00;101037.22;5014940;28;20443;-83
2022/04/01 04:47:11;;;;;;;1.10;0.90;;;;;;;4.19;100.00;101037.13;5019962;28;20439;-84
2022/04/01 04:49:41;;;;;;;1.50;0.77;;;;;;;3.90;100.00;100986.94;5021002;28;20810;-82
2022/04/01 04:52:08;;;;;;;1.43;0.63;;;;;;;4.01;100.00;101028.34;5016955;28;20501;-82
2022/04/01 04:54:38;;;;;;;1.37;0.83;;;;;;;3.55;100.00;100953.28;5016594;28;20462;-82
2022/04/01 04:57:05;;;;;;;1.90;0.90;;;;;;;3.95;100.00;101040.41;5022657;28;21005;-82
2022/04/01 04:59:31;;;;;;;0.83;0.70;;;;;;;4.10;100.00;101059.28;5016838;28;20508;-81
2022/04/01 05:02:10;;;;;;;2.17;0.90;;;;;;;4.07;100.00;101055.13;5018595;28;20505;-80
2022/04/01 05:05:03;;;;;;;1.53;0.60;;;;;;;4.03;100.00;101059.06;5013279;28;20258;-81
2022/04/01 05:07:46;;;;;;;1.70;0.80;;;;;;;4.22;100.00;101063.41;5019160;28;20436;-81
2022/04/01 05:10:18;;;;;;;1.00;0.73;;;;;;;4.13;100.00;101064.31;5015057;28;20834;-80
2022/04/01 05:13:08;;;;;;;0.60;0.60;;;;;;;4.25;100.00;101062.25;5009543;28;20477;-80
2022/04/01 05:15:37;;;;;;;2.13;0.83;;;;;;;4.11;100.00;101023.81;5013829;28;20438;-79
2022/04/01 05:18:10;;;;;;;2.00;0.90;;;;;;;4.30;100.00;101082.06;5021097;28;20982;-81
2022/04/01 05:20:38;;;;;;;1.17;0.70;;;;;;;4.21;100.00;101075.00;5020217;28;20545;-81
2022/04/01 05:23:15;;;;;;;1.33;0.70;;;;;;;4.19;100.00;101086.75;5022953;28;20565;-80
2022/04/01 05:25:46;;;;;;;0.60;0.60;;;;;;;3.92;100.00;101053.97;5018684;28;20807;-80
2022/04/01 05:28:29;;;;;;;1.60;1.10;;;;;;;4.15;100.00;101080.91;5023562;28;20466;-81
2022/04/01 05:31:29;;;;;;;1.33;0.70;;;;;;;4.05;100.00;101080.16;5016066;28;20486;-79
2022/04/01 05:34:09;;;;;;;1.00;0.90;;;;;;;4.04;100.00;101063.38;5001710;28;20779;-81
2022/04/01 05:36:38;;;;;;;0.90;0.80;;;;;;;4.13;100.00;101090.03;5007248;28;20445;-81
2022/04/01 05:39:04;;;;;;;1.80;1.00;;;;;;;4.42;100.00;101095.09;5004267;28;20506;-82
2022/04/01 05:41:30;;;;;;;4.37;1.30;;;;;;;3.48;100.00;100990.19;5013351;28;20848;-80
2022/04/01 05:44:00;;;;;;;1.17;0.90;;;;;;;4.10;100.00;101075.22;5014681;28;20454;-81
2022/04/01 05:46:26;;;;;;;1.67;0.90;;;;;;;4.25;100.00;101123.31;5005768;28;20205;-81
2022/04/01 05:48:55;;;;;;;1.13;0.80;;;;;;;3.88;100.00;101051.75;5009998;28;20454;-81
2022/04/01 05:51:20;;;;;;;1.07;1.00;;;;;;;4.48;100.00;101124.56;5004301;28;20488;-80
2022/04/01 05:53:48;;;;;;;0.77;0.77;;;;;;;4.35;100.00;101120.63;5013066;28;20444;-78
2022/04/01 05:56:14;;;;;;;1.97;1.20;;;;;;;4.27;100.00;101098.28;5023021;28;20224;-78
2022/04/01 05:58:41;;;;;;;2.70;1.13;;;;;;;4.18;100.00;101119.63;5011432;28;20542;-78
2022/04/01 06:01:18;;;;;;;2.40;1.00;;;;;;;4.00;100.00;101136.34;5008165;28;20474;-78
2022/04/01 06:04:02;;;;;;;1.93;1.27;;;;;;;4.18;100.00;101136.38;5004892;28;20445;-78
2022/04/01 06:06:32;;;;;;;2.87;1.00;;;;;;;4.32;100.00;101132.38;5007639;28;20525;-77
2022/04/01 06:09:07;;;;;;;1.93;0.80;;;;;;;4.18;100.00;101095.72;5007193;28;20448;-77
2022/04/01 06:11:43;;;;;;;1.97;0.80;;;;;;;4.30;100.00;101134.34;5017650;23;20502;-73
2022/04/01 06:14:18;;;;;;;1.17;0.90;;;;;;;4.50;100.00;101146.50;5006331;28;21011;-73
2022/04/01 06:16:44;;;;;;;1.40;0.63;;;;;;;4.35;100.00;101148.00;5011202;28;20926;-74
2022/04/01 06:19:46;;;;;;;1.00;0.80;;;;;;;4.36;100.00;101132.91;4990022;28;20448;-74
2022/04/01 06:22:20;;;;;;;1.97;1.00;;;;;;;4.40;100.00;101160.84;4959433;28;21049;-73
2022/04/01 06:25:10;;;;;;;3.10;0.90;;;;;;;4.43;100.00;101158.72;4991300;28;20745;-72
2022/04/01 06:27:46;;;;;;;7.20;1.50;;;;;;;4.53;100.00;101163.94;4992679;28;20522;-74
2022/04/01 06:30:21;;;;;;;1.37;0.83;;;;;;;4.53;100.00;101148.00;4993370;28;20439;-73
2022/04/01 06:32:55;;;;;;;2.83;0.80;;;;;;;4.48;100.00;101171.53;4991835;28;20440;-73
2022/04/01 06:35:26;;;;;;;1.73;1.00;;;;;;;4.75;100.00;101176.78;4982725;28;20455;-73
2022/04/01 06:37:57;;;;;;;0.80;0.80;;;;;;;4.58;100.00;101171.47;4986815;28;20439;-72
2022/04/01 06:40:27;;;;;;;1.63;0.80;;;;;;;4.49;100.00;101174.06;4990871;28;20444;-73
2022/04/01 06:42:53;;;;;;;1.57;0.60;;;;;;;4.41;100.00;101167.81;4989161;28;20444;-71
2022/04/01 06:45:20;;;;;;;6.30;0.90;;;;;;;4.34;100.00;101169.38;4988689;28;20472;-72
2022/04/01 06:47:46;;;;;;;1.17;1.00;;;;;;;4.31;100.00;101186.47;4991737;28;20515;-72
2022/04/01 06:50:13;;;;;;;1.73;0.77;;;;;;;4.53;100.00;101186.03;4976483;28;20823;-72
2022/04/01 06:52:39;;;;;;;48.87;6.97;;;;;;;4.47;100.00;101196.44;4990390;28;20448;-75
2022/04/01 06:55:08;;;;;;;258.40;39.07;;;;;;;3.99;100.00;101109.94;4990021;28;20433;-73
2022/04/01 06:57:34;;;;;;;45.47;9.77;;;;;;;3.87;100.00;101127.91;4990385;28;20848;-74
2022/04/01 07:00:00;;;;;;;18.53;3.70;;;;;;;3.98;100.00;101145.44;4992054;28;20466;-77
2022/04/01 07:02:25;;;;;;;43.30;8.90;;;;;;;4.41;100.00;101179.28;4989880;28;20574;-77
2022/04/01 07:04:51;;;;;;;44.37;7.13;;;;;;;4.23;100.00;101157.19;4988345;28;20276;-79
2022/04/01 07:07:17;;;;;;;91.47;13.40;;;;;;;4.35;100.00;101187.84;4972840;28;20209;-73
2022/04/01 07:09:42;;;;;;;58.80;10.60;;;;;;;4.07;100.00;101142.72;4983116;28;21195;-75
2022/04/01 07:12:08;;;;;;;5.60;1.97;;;;;;;4.14;100.00;101174.84;4985783;28;20235;-74
2022/04/01 07:14:33;;;;;;;30.30;4.83;;;;;;;3.93;100.00;101163.63;4997918;28;20202;-74
2022/04/01 07:16:59;;;;;;;146.03;23.90;;;;;;;4.52;100.00;101224.22;4990593;28;20193;-74
2022/04/01 07:19:25;;;;;;;74.23;12.37;;;;;;;4.36;100.00;101223.19;4991330;28;20981;-73
2022/04/01 07:21:50;;;;;;;42.77;8.83;;;;;;;4.22;100.00;101179.38;4981176;28;20507;-74
2022/04/01 07:24:16;;;;;;;3.63;1.50;;;;;;;4.07;100.00;101160.47;4960500;28;20741;-75
2022/04/01 07:26:43;;;;;;;4.07;1.13;;;;;;;4.15;100.00;101167.72;4959626;28;20519;-75
2022/04/01 07:29:08;;;;;;;0.90;0.80;;;;;;;4.38;100.00;101234.53;4975867;28;20204;-75
2022/04/01 07:34:41;;;;;;;3.03;1.03;;;;;;;4.24;100.00;101215.44;4986805;28;20224;-75
2022/04/01 07:37:08;;;;;;;1.77;1.07;;;;;;;4.39;100.00;101226.38;4988732;28;20459;-74
2022/04/01 07:39:34;;;;;;;1.50;0.93;;;;;;;4.30;100.00;101220.16;4992753;28;20436;-74
2022/04/01 07:42:00;;;;;;;2.10;0.87;;;;;;;4.38;100.00;101205.31;4990544;28;20471;-74
2022/04/01 07:44:26;;;;;;;35.80;3.70;;;;;;;3.99;100.00;101186.91;4990380;28;20776;-74
2022/04/01 07:46:52;;;;;;;6.97;2.03;;;;;;;4.25;100.00;101251.66;4992577;28;20834;-74
2022/04/01 07:49:18;;;;;;;43.80;6.70;;;;;;;3.99;100.00;101234.69;4975942;28;20823;-74
2022/04/01 07:51:44;;;;;;;3.57;1.30;;;;;;;4.35;100.00;101264.88;4992558;28;20570;-71
2022/04/01 07:54:14;;;;;;;2.40;1.00;;;;;;;3.99;100.00;101193.09;4993252;28;20540;-71
2022/04/01 07:56:40;;;;;;;1.67;1.03;;;;;;;4.10;100.00;101244.28;4991265;28;20450;-71
2022/04/01 07:59:11;;;;;;;2.30;1.30;;;;;;;3.85;100.00;101207.66;4980604;28;20530;-71
2022/04/01 08:01:36;;;;;;;1.90;1.20;;;;;;;4.06;100.00;101259.69;4980056;28;20971;-71
2022/04/01 08:04:03;;;;;;;2.67;1.13;;;;;;;4.23;100.00;101250.13;4987174;28;20436;-71
2022/04/01 08:06:30;;;;;;;2.43;1.00;;;;;;;4.34;100.00;101270.31;4989735;28;20212;-71
2022/04/01 08:08:59;;;;;;;1.17;1.03;;;;;;;4.21;100.00;101247.59;4983402;28;20443;-70
2022/04/01 08:11:25;;;;;;;1.73;0.93;;;;;;;4.21;100.00;101266.19;4991882;28;20476;-71
2022/04/01 08:13:52;;;;;;;1.00;0.80;;;;;;;4.40;100.00;101254.63;4973648;28;21040;-70
2022/04/01 08:16:17;;;;;;;2.50;0.90;;;;;;;4.57;100.00;101294.66;4974847;28;20446;-70
2022/04/01 08:18:43;;;;;;;1.40;1.10;;;;;;;3.74;100.00;101214.97;4996769;28;20444;-71
2022/04/01 08:21:08;;;;;;;1.20;1.10;;;;;;;3.98;100.00;101262.22;4993644;28;20205;-72
2022/04/01 08:23:35;;;;;;;1.37;0.90;;;;;;;4.17;100.00;101285.22;4993652;28;20565;-72
2022/04/01 08:26:07;;;;;;;1.00;0.90;;;;;;;4.14;100.00;101296.97;4987618;28;20217;-71
2022/04/01 08:28:33;;;;;;;2.20;1.20;;;;;;;4.41;100.00;101321.88;4991941;28;20451;-72
2022/04/01 08:30:59;;;;;;;1.00;0.90;;;;;;;4.22;100.00;101320.13;4992370;28;20494;-71
2022/04/01 08:33:24;;;;;;;2.00;1.00;;;;;;;4.25;100.00;101323.34;4989291;28;21525;-71
2022/04/01 08:35:50;;;;;;;3.03;1.07;;;;;;;4.06;100.00;101303.00;4972749;28;20242;-71
2022/04/01 08:38:16;;;;;;;1.03;0.93;;;;;;;3.89;100.00;101318.84;4984792;28;20989;-71
2022/04/01 08:40:41;;;;;;;1.60;1.10;;;;;;;4.19;100.00;101341.66;4980253;28;20581;-70
2022/04/01 08:43:07;;;;;;;1.73;1.10;;;;;;;4.01;100.00;101329.13;4984755;28;20193;-70
2022/04/01 08:45:35;;;;;;;2.30;1.00;;;;;;;4.23;100.00;101327.94;4982955;28;20209;-71
2022/04/01 08:48:02;;;;;;;1.10;0.80;;;;;;;3.96;100.00;101299.53;4984263;28;21831;-71
2022/04/01 08:50:28;;;;;;;6.77;3.30;;;;;;;4.06;100.00;101341.97;4978346;28;20444;-71
2022/04/01 08:52:53;;;;;;;5.47;3.20;;;;;;;4.04;100.00;101354.56;4981586;28;20483;-72
2022/04/01 08:55:19;;;;;;;3.57;1.93;;;;;;;4.06;100.00;101352.59;4985921;28;20447;-68
2022/04/01 08:57:45;;;;;;;4.60;2.00;;;;;;;4.07;100.00;101341.00;4979681;28;20228;-71
2022/04/01 09:00:13;;;;;;;1.67;1.57;;;;;;;4.15;100.00;101365.00;4984951;28;20783;-71
2022/04/01 09:02:40;;;;;;;198.67;16.20;;;;;;;4.11;100.00;101345.03;4971455;28;20189;-69
2022/04/01 09:05:07;;;;;;;19.20;3.73;;;;;;;4.11;100.00;101354.81;4982609;28;20503;-70
2022/04/01 09:07:33;;;;;;;3.40;2.50;;;;;;;4.12;100.00;101362.63;4986133;28;20447;-70
2022/04/01 09:10:08;;;;;;;4.87;1.70;;;;;;;3.84;100.00;101327.22;4986213;28;20445;-69
2022/04/01 09:12:34;;;;;;;23.27;3.43;;;;;;;3.89;100.00;101330.28;4984741;28;20700;-70
2022/04/01 09:15:03;;;;;;;2.83;1.60;;;;;;;4.10;100.00;101374.38;4977923;28;20504;-70
2022/04/01 09:17:41;;;;;;;2.50;1.40;;;;;;;4.38;100.00;101367.31;4986927;28;20449;-70
2022/04/01 09:20:07;;;;;;;2.00;1.70;;;;;;;4.22;100.00;101367.91;4986066;28;20462;-69
2022/04/01 09:22:33;;;;;;;1.50;1.40;;;;;;;4.24;100.00;101376.59;4981096;28;20467;-70
2022/04/01 09:25:02;;;;;;;1.60;1.43;;;;;;;4.24;100.00;101364.13;4967609;28;20486;-70
2022/04/01 09:27:48;;;;;;;2.80;1.20;;;;;;;3.85;100.00;101315.63;4984205;28;20185;-70
2022/04/01 09:30:17;;;;;;;3.40;1.60;;;;;;;4.48;100.00;101381.38;4986915;28;20524;-70
2022/04/01 09:32:44;;;;;;;2.00;1.70;;;;;;;4.54;100.00;101370.16;4988665;28;20448;-71
2022/04/01 09:35:11;;;;;;;50.50;4.83;;;;;;;4.51;100.00;101370.47;4988200;28;21384;-70
2022/04/01 09:37:48;;;;;;;11.53;3.30;;;;;;;4.48;100.00;101373.41;4987647;28;20436;-70
2022/04/01 09:40:21;;;;;;;3.43;1.43;;;;;;;4.43;100.00;101379.19;4986128;28;20474;-70
2022/04/01 09:42:55;;;;;;;3.10;1.60;;;;;;;4.51;100.00;101379.31;4988175;28;20443;-71
2022/04/01 09:45:25;;;;;;;4.13;1.20;;;;;;;4.38;100.00;101351.38;4981148;28;20471;-71
2022/04/01 09:48:04;;;;;;;1.13;0.90;;;;;;;4.37;100.00;101358.53;4982791;28;20514;-70
2022/04/01 09:50:36;;;;;;;1.13;1.03;;;;;;;4.49;100.00;101377.75;4984732;28;20483;-70
2022/04/01 09:53:10;;;;;;;1.40;1.10;;;;;;;4.45;100.00;101368.41;4984380;28;20450;-70
2022/04/01 09:55:47;;;;;;;1.30;1.10;;;;;;;4.17;100.00;101376.31;4990057;28;20526;-70
2022/04/01 09:58:15;;;;;;;1.17;1.07;;;;;;;4.49;100.00;101391.03;4989626;28;20832;-70
2022/04/01 10:00:41;;;;;;;2.07;1.17;;;;;;;4.41;100.00;101385.63;4987513;28;20545;-70
2022/04/01 10:03:08;;;;;;;2.03;1.30;;;;;;;4.13;100.00;101332.44;4982566;28;20455;-70
2022/04/01 10:05:37;;;;;;;2.40;1.43;;;;;;;4.20;100.00;101389.31;4986943;28;22705;-70
2022/04/01 10:08:06;;;;;;;2.80;1.87;;;;;;;4.26;100.00;101372.81;4992863;28;20474;-70
2022/04/01 10:10:31;;;;;;;5.23;3.80;;;;;;;4.42;100.00;101385.47;4984681;28;20470;-70
2022/04/01 10:13:01;;;;;;;8.93;6.40;;;;;;;4.55;100.00;101376.34;4989301;28;20445;-70
2022/04/01 10:15:29;;;;;;;6.80;5.87;;;;;;;4.47;100.00;101379.72;4989932;28;20224;-70
2022/04/01 10:17:57;;;;;;;3.27;2.97;;;;;;;4.52;100.00;101382.78;4990274;28;20452;-69
2022/04/01 10:20:30;;;;;;;1.60;1.50;;;;;;;4.72;100.00;101389.69;4974460;28;20447;-70
2022/04/01 10:22:56;;;;;;;1.30;1.20;;;;;;;4.71;100.00;101382.69;4993345;28;20530;-70
2022/04/01 10:25:31;;;;;;;2.60;0.90;;;;;;;4.90;100.00;101372.94;4988199;28;20658;-69
2022/04/01 10:28:02;;;;;;;14.93;2.80;;;;;;;4.94;100.00;101384.94;4989573;28;20899;-70
2022/04/01 10:30:31;;;;;;;2.30;1.00;;;;;;;4.76;100.00;101366.31;4992183;28;20964;-70
2022/04/01 10:32:56;;;;;;;1.43;0.90;;;;;;;4.94;100.00;101379.63;4993187;28;20502;-70
2022/04/01 10:35:24;;;;;;;5.93;1.20;;;;;;;4.95;100.00;101381.31;4993280;28;21032;-70
2022/04/01 10:38:16;;;;;;;2.30;0.80;;;;;;;4.75;100.00;101348.69;4990356;28;20200;-70
2022/04/01 10:40:49;;;;;;;1.13;0.97;;;;;;;4.81;100.00;101360.56;4989128;28;20474;-70
2022/04/01 10:43:38;;;;;;;3.20;1.20;;;;;;;5.11;100.00;101378.81;4994159;28;20443;-70
2022/04/01 10:46:10;;;;;;;2.20;1.60;;;;;;;5.07;100.00;101387.28;4989567;28;20840;-70
2022/04/01 10:51:37;;;;;;;49.50;8.77;;;;;;;5.11;100.00;101391.28;4987884;28;20553;-69
2022/04/01 10:54:06;;;;;;;223.40;34.33;;;;;;;4.97;100.00;101374.00;4989724;28;20471;-70
2022/04/01 10:56:36;;;;;;;62.03;11.60;;;;;;;5.07;100.00;101390.75;4989353;28;21079;-69
2022/04/01 10:59:16;;;;;;;41.07;7.70;;;;;;;5.16;100.00;101381.03;4987016;28;20449;-69
2022/04/01 11:01:56;;;;;;;27.63;7.23;;;;;;;5.27;100.00;101391.47;4985957;28;20482;-70
2022/04/01 11:04:21;;;;;;;40.23;7.53;;;;;;;5.40;100.00;101381.28;4996871;28;20490;-71
2022/04/01 11:07:03;;;;;;;115.20;19.60;;;;;;;5.21;100.00;101365.47;4987738;28;20566;-69
2022/04/01 11:09:47;;;;;;;10.43;3.10;;;;;;;5.35;100.00;101380.91;4988738;28;20200;-69
2022/04/01 11:12:19;;;;;;;58.33;9.70;;;;;;;5.33;100.00;101385.53;4994462;28;20470;-70
2022/04/01 11:14:56;;;;;;;22.03;6.43;;;;;;;5.42;100.00;101392.63;4996974;28;20436;-70
2022/04/01 11:17:47;;;;;;;33.63;7.40;;;;;;;5.30;100.00;101377.03;4991000;28;20534;-70
2022/04/01 11:22:40;;;;;;;3.73;2.20;;;;;;;5.10;100.00;101360.38;5012661;23;20903;-71
2022/04/01 11:25:24;;;;;;;3.17;1.80;;;;;;;5.45;100.00;101383.50;5012009;28;20505;-71
2022/04/01 11:27:50;;;;;;;2.47;2.27;;;;;;;5.41;100.00;101387.47;5019264;28;20521;-70
2022/04/01 11:30:19;;;;;;;2.87;2.50;;;;;;;5.31;100.00;101366.22;5019110;28;20861;-72
2022/04/01 11:32:47;;;;;;;80.20;12.97;;;;;;;5.32;100.00;101353.75;5011527;28;20271;-71
2022/04/01 11:35:15;;;;;;;18.23;4.40;;;;;;;5.49;100.00;101379.53;5013193;28;20441;-70
2022/04/01 11:37:43;;;;;;;5.10;2.53;;;;;;;5.38;100.00;101371.78;5015763;28;20443;-70
2022/04/01 11:40:14;;;;;;;2.03;1.20;;;;;;;5.39;100.00;101374.31;5014563;28;20439;-70
2022/04/01 11:43:17;;;;;;;4.03;1.53;;;;;;;5.39;100.00;101371.63;4999346;28;20465;-70
2022/04/01 11:45:42;;;;;;;2.30;1.00;;;;;;;5.71;100.00;101380.06;4910609;28;20502;-71
2022/04/01 11:48:22;;;;;;;1.63;0.87;;;;;;;5.82;100.00;101382.50;4994614;28;20451;-71